Time;durP1;ratioP1;P1;durP2;ratioP2;P2;SDS_P1;SDS_P2;PMS_P1;PMS_P2;Temp;Humidity;BMP_temperature;BMP_pressure;BME280_temperature;BME280_humidity;BME280_pressure;Samples;Min_cycle;Max_cycle;Signal;HPM_P1;HPM_P2
2023/04/16 00:00:21;;;;;;;0.30;0.20;;;;;;;14.68;54.23;95309.13;5038205;28;20017;-28
2023/04/16 00:02:46;;;;;;;1.05;0.40;;;;;;;14.58;54.57;95310.53;5041156;28;20025;-29
2023/04/16 00:05:13;;;;;;;2.95;0.52;;;;;;;14.78;53.88;95309.72;5043105;28;20398;-29
2023/04/16 00:07:39;;;;;;;0.70;0.32;;;;;;;14.72;54.00;95319.81;5039162;28;20021;-28
2023/04/16 00:10:06;;;;;;;1.80;0.68;;;;;;;14.47;54.33;95321.28;5039796;28;20032;-28
2023/04/16 00:12:32;;;;;;;1.15;0.50;;;;;;;14.68;54.10;95322.78;5037308;28;20053;-29
2023/04/16 00:14:58;;;;;;;1.60;0.30;;;;;;;14.73;53.93;95324.06;5041188;28;20017;-29
2023/04/16 00:17:23;;;;;;;0.65;0.32;;;;;;;14.79;53.27;95324.13;5043112;28;20017;-28
2023/04/16 00:19:49;;;;;;;1.55;0.40;;;;;;;14.83;53.46;95330.88;5031391;28;20457;-29
2023/04/16 00:22:14;;;;;;;0.93;0.50;;;;;;;14.85;53.73;95335.84;5039688;28;20044;-29
2023/04/16 00:24:40;;;;;;;2.03;0.60;;;;;;;14.89;53.53;95336.38;5035746;28;20057;-29
2023/04/16 00:27:06;;;;;;;1.20;0.40;;;;;;;14.76;53.90;95339.47;5034721;28;20021;-28
2023/04/16 00:29:32;;;;;;;1.15;0.60;;;;;;;14.68;53.86;95344.59;5034547;28;20029;-28
2023/04/16 00:31:58;;;;;;;0.95;0.40;;;;;;;14.54;53.98;95337.25;5049177;28;20017;-28
2023/04/16 00:34:24;;;;;;;1.65;0.52;;;;;;;14.50;54.33;95344.88;5042485;28;20056;-29
2023/04/16 00:36:50;;;;;;;2.65;0.60;;;;;;;14.70;53.78;95350.34;5042802;28;20487;-29
2023/04/16 00:39:15;;;;;;;1.63;0.60;;;;;;;14.58;54.33;95343.25;5033422;28;20105;-29
2023/04/16 00:41:42;;;;;;;0.60;0.30;;;;;;;14.62;54.12;95348.50;5035368;28;20049;-29
2023/04/16 00:44:08;;;;;;;3.20;0.40;;;;;;;14.79;53.52;95343.22;5035577;28;20043;-29
2023/04/16 00:46:34;;;;;;;1.45;0.50;;;;;;;14.73;53.27;95345.88;5040040;28;20464;-29
2023/04/16 00:49:01;;;;;;;1.10;0.50;;;;;;;14.60;53.93;95348.97;5036522;28;20040;-28
2023/04/16 00:51:27;;;;;;;1.58;0.50;;;;;;;14.55;53.93;95344.22;5034918;28;20037;-28
2023/04/16 00:53:52;;;;;;;0.95;0.50;;;;;;;14.56;53.80;95347.69;5034887;28;20028;-30
2023/04/16 00:56:18;;;;;;;2.28;0.65;;;;;;;14.48;53.65;95347.34;5042220;28;20047;-29
2023/04/16 00:58:43;;;;;;;1.08;0.68;;;;;;;14.58;53.56;95347.97;5034974;28;20476;-29
2023/04/16 01:01:09;;;;;;;1.48;0.52;;;;;;;14.65;53.26;95356.47;5041109;28;20377;-29
2023/04/16 01:03:40;;;;;;;2.13;0.60;;;;;;;14.57;53.33;95349.94;5041820;28;20477;-29
2023/04/16 01:06:06;;;;;;;2.95;0.70;;;;;;;14.65;53.00;95348.28;5034587;28;20527;-28
2023/04/16 01:08:32;;;;;;;1.02;0.50;;;;;;;14.63;53.09;95358.94;5042322;28;20110;-28
2023/04/16 01:10:57;;;;;;;3.00;0.60;;;;;;;14.56;53.04;95356.63;5033445;28;20060;-28
2023/04/16 01:13:23;;;;;;;1.48;0.60;;;;;;;14.66;52.44;95363.44;5041541;28;20025;-28
2023/04/16 01:15:50;;;;;;;2.13;0.50;;;;;;;14.68;52.68;95358.25;5038381;28;20025;-28
2023/04/16 01:18:20;;;;;;;3.13;0.60;;;;;;;14.76;52.51;95355.84;5036855;28;20036;-28
2023/04/16 01:20:47;;;;;;;1.30;0.50;;;;;;;14.50;52.88;95355.78;5041815;28;20098;-28
2023/04/16 01:23:13;;;;;;;1.95;0.60;;;;;;;14.60;52.92;95357.16;5034682;28;20025;-29
2023/04/16 01:25:38;;;;;;;0.88;0.50;;;;;;;14.69;52.73;95359.75;5034541;28;20412;-28
2023/04/16 01:28:05;;;;;;;2.15;0.50;;;;;;;14.56;53.25;95358.59;5034570;28;20060;-28
2023/04/16 01:30:30;;;;;;;1.00;0.50;;;;;;;14.77;52.20;95356.59;5034484;28;20037;-28
2023/04/16 01:32:56;;;;;;;1.90;0.52;;;;;;;14.55;52.83;95368.00;5049364;28;20091;-28
2023/04/16 01:35:22;;;;;;;1.95;0.60;;;;;;;14.46;53.19;95360.72;5039568;28;20108;-29
2023/04/16 01:37:49;;;;;;;1.35;0.50;;;;;;;14.79;52.07;95367.78;5036344;28;20029;-29
2023/04/16 01:40:15;;;;;;;1.50;0.60;;;;;;;14.60;52.76;95365.34;5034107;28;20083;-28
2023/04/16 01:42:40;;;;;;;1.75;0.63;;;;;;;14.81;51.98;95368.06;5034295;28;20026;-29
2023/04/16 01:45:06;;;;;;;1.60;0.60;;;;;;;14.51;52.95;95367.47;5034468;28;20045;-29
2023/04/16 01:47:31;;;;;;;5.28;1.13;;;;;;;14.75;52.40;95365.25;5033840;28;20431;-29
2023/04/16 01:49:58;;;;;;;2.30;0.50;;;;;;;14.87;51.72;95377.81;5048718;28;20021;-30
2023/04/16 01:52:24;;;;;;;2.25;0.50;;;;;;;14.55;52.87;95368.75;5041163;28;20021;-28
2023/04/16 01:54:49;;;;;;;1.20;0.50;;;;;;;14.58;52.48;95378.72;5033951;28;20036;-28
2023/04/16 01:57:15;;;;;;;3.35;0.77;;;;;;;14.47;52.87;95377.81;5034353;28;20794;-28
2023/04/16 01:59:40;;;;;;;3.42;0.50;;;;;;;14.53;52.64;95375.91;5033852;28;20021;-28
2023/04/16 02:02:10;;;;;;;0.75;0.35;;;;;;;14.53;52.64;95373.19;5034017;28;20108;-28
2023/04/16 02:04:39;;;;;;;2.88;0.50;;;;;;;14.73;51.94;95379.38;5029922;28;20401;-28
2023/04/16 02:07:06;;;;;;;2.38;0.50;;;;;;;14.56;52.69;95381.19;5037255;28;20025;-29
2023/04/16 02:09:34;;;;;;;0.73;0.40;;;;;;;14.67;52.48;95375.09;5041777;28;20033;-30
2023/04/16 02:12:01;;;;;;;1.95;0.60;;;;;;;14.47;53.03;95377.81;5032403;28;20438;-29
2023/04/16 02:14:26;;;;;;;3.95;0.50;;;;;;;14.61;52.76;95377.75;5040713;28;20039;-28
2023/04/16 02:16:52;;;;;;;1.52;0.60;;;;;;;14.58;52.79;95380.72;5033819;28;20022;-30
2023/04/16 02:19:17;;;;;;;2.28;0.63;;;;;;;14.46;53.17;95382.53;5033867;28;20434;-29
2023/04/16 02:21:43;;;;;;;2.47;0.70;;;;;;;14.56;53.17;95375.72;5033722;28;20535;-29
2023/04/16 02:24:08;;;;;;;1.17;0.40;;;;;;;14.72;52.70;95368.94;5038547;28;20067;-30
2023/04/16 02:26:34;;;;;;;2.58;0.57;;;;;;;14.62;52.92;95365.63;5035753;28;20033;-28
2023/04/16 02:29:00;;;;;;;3.22;0.40;;;;;;;14.63;52.96;95372.56;5032049;28;20075;-28
2023/04/16 02:31:27;;;;;;;2.67;0.50;;;;;;;14.57;53.48;95368.28;5040317;28;20078;-29
2023/04/16 02:33:53;;;;;;;2.40;0.60;;;;;;;14.63;52.98;95369.09;5034174;28;20419;-29
2023/04/16 02:36:18;;;;;;;3.33;0.57;;;;;;;14.62;53.33;95368.34;5033639;28;20018;-28
2023/04/16 02:38:44;;;;;;;4.25;0.70;;;;;;;14.54;53.67;95369.25;5041240;28;20441;-28
2023/04/16 02:41:09;;;;;;;4.45;0.63;;;;;;;14.58;53.56;95372.53;5041066;28;20024;-28
2023/04/16 02:43:34;;;;;;;3.67;1.27;;;;;;;14.64;53.17;95365.88;5032818;28;20473;-28
2023/04/16 02:46:00;;;;;;;1.35;0.40;;;;;;;14.62;53.40;95367.59;5033869;28;20034;-28
2023/04/16 02:48:25;;;;;;;2.60;0.68;;;;;;;14.58;53.61;95367.81;5033610;28;20022;-28
2023/04/16 02:50:51;;;;;;;1.95;0.40;;;;;;;14.60;53.65;95367.31;5049066;28;20020;-28
2023/04/16 02:53:16;;;;;;;2.83;0.50;;;;;;;14.51;53.92;95370.94;5039952;28;20029;-29
2023/04/16 02:55:51;;;;;;;2.38;0.30;;;;;;;14.50;53.52;95361.25;5042135;28;20465;-28
2023/04/16 02:58:17;;;;;;;2.53;0.70;;;;;;;14.52;53.19;95368.97;5037448;28;20061;-29
2023/04/16 03:00:42;;;;;;;2.97;0.55;;;;;;;14.30;54.27;95372.13;5037297;28;20060;-29
2023/04/16 03:03:07;;;;;;;3.58;1.02;;;;;;;14.45;53.94;95359.22;5037368;28;20026;-28
2023/04/16 03:05:33;;;;;;;2.47;0.43;;;;;;;14.35;54.34;95368.72;5037051;28;20047;-28
2023/04/16 03:07:58;;;;;;;2.40;0.50;;;;;;;14.42;54.08;95360.16;5049158;28;20353;-30
2023/04/16 03:10:23;;;;;;;1.25;0.50;;;;;;;14.31;54.28;95365.44;5045538;28;20029;-28
2023/04/16 03:12:49;;;;;;;2.08;0.60;;;;;;;14.31;54.48;95371.66;5040815;28;20024;-29
2023/04/16 03:15:14;;;;;;;5.40;0.60;;;;;;;14.36;54.08;95365.50;5039797;28;20037;-29
2023/04/16 03:17:40;;;;;;;2.50;0.93;;;;;;;14.31;54.27;95371.66;5044135;28;20074;-29
2023/04/16 03:20:06;;;;;;;2.35;0.60;;;;;;;14.32;54.26;95372.41;5036585;28;20021;-29
2023/04/16 03:22:31;;;;;;;2.10;0.47;;;;;;;14.29;54.38;95367.91;5037341;28;20101;-28
2023/04/16 03:24:57;;;;;;;4.32;0.73;;;;;;;14.58;53.38;95375.25;5042770;28;20112;-30
2023/04/16 03:27:22;;;;;;;1.65;0.60;;;;;;;14.50;53.60;95377.63;5044250;28;20022;-28
2023/04/16 03:29:48;;;;;;;1.42;0.40;;;;;;;14.37;54.01;95374.44;5036793;28;20535;-28
2023/04/16 03:32:13;;;;;;;2.95;0.60;;;;;;;14.56;53.52;95375.72;5036740;28;20071;-28
2023/04/16 03:34:39;;;;;;;1.05;0.50;;;;;;;14.51;53.60;95373.66;5036450;28;20022;-28
2023/04/16 03:37:05;;;;;;;2.15;0.47;;;;;;;14.41;53.66;95379.72;5036907;28;20465;-29
2023/04/16 03:39:31;;;;;;;2.00;0.50;;;;;;;14.43;53.95;95378.03;5042864;28;20021;-28
2023/04/16 03:41:56;;;;;;;4.53;0.73;;;;;;;14.58;53.67;95380.72;5038552;28;20104;-31
2023/04/16 03:44:22;;;;;;;1.85;0.52;;;;;;;14.46;53.72;95370.88;5042184;28;20538;-30
2023/04/16 03:46:48;;;;;;;2.53;0.70;;;;;;;14.57;53.75;95373.75;5036180;28;20037;-28
2023/04/16 03:49:13;;;;;;;2.75;0.50;;;;;;;14.57;53.60;95374.50;5039043;28;20025;-28
2023/04/16 03:51:39;;;;;;;1.92;0.73;;;;;;;14.41;54.24;95385.94;5039546;28;20385;-29
2023/04/16 03:54:04;;;;;;;4.72;1.02;;;;;;;14.42;54.35;95386.69;5036340;28;20029;-28
2023/04/16 03:56:29;;;;;;;5.10;1.20;;;;;;;14.46;54.05;95381.78;5050040;28;20025;-29
2023/04/16 03:58:55;;;;;;;5.80;1.85;;;;;;;14.23;54.35;95386.16;5042788;28;20013;-28
2023/04/16 04:01:20;;;;;;;6.18;2.95;;;;;;;14.31;54.23;95373.63;5036258;28;20017;-31
2023/04/16 04:03:45;;;;;;;7.13;2.60;;;;;;;14.34;54.21;95384.31;5035070;28;20444;-29
2023/04/16 04:06:11;;;;;;;3.55;1.55;;;;;;;14.33;54.23;95390.28;5036147;28;20025;-29
2023/04/16 04:08:37;;;;;;;3.58;1.42;;;;;;;14.49;53.89;95397.94;5034798;28;20180;-28
2023/04/16 04:11:03;;;;;;;2.03;1.20;;;;;;;14.55;53.59;95404.22;5035697;28;20056;-28
2023/04/16 04:13:28;;;;;;;2.35;0.60;;;;;;;14.41;53.74;95391.41;5050111;28;20052;-28
2023/04/16 04:15:54;;;;;;;3.45;0.60;;;;;;;14.52;53.40;95397.00;5042736;28;20121;-29
2023/04/16 04:18:19;;;;;;;2.15;0.38;;;;;;;14.58;53.13;95399.81;5035415;28;20483;-28
2023/04/16 04:20:45;;;;;;;1.58;0.30;;;;;;;14.38;53.47;95397.78;5036265;28;20024;-28
2023/04/16 04:23:10;;;;;;;2.70;0.20;;;;;;;14.50;53.02;95396.72;5035380;28;20032;-29
2023/04/16 04:25:35;;;;;;;0.57;0.10;;;;;;;14.57;52.69;95398.31;5035843;28;20021;-29
2023/04/16 04:28:02;;;;;;;1.10;0.20;;;;;;;14.60;52.69;95409.00;5039189;28;20036;-31
2023/04/16 04:30:27;;;;;;;1.83;0.30;;;;;;;14.34;53.30;95410.88;5038945;28;20030;-29
2023/04/16 04:32:53;;;;;;;0.50;0.25;;;;;;;14.50;52.48;95415.81;5035112;28;20022;-28
2023/04/16 04:35:18;;;;;;;1.50;0.30;;;;;;;14.37;52.44;95409.91;5035278;28;20053;-28
2023/04/16 04:37:44;;;;;;;0.43;0.10;;;;;;;14.34;51.97;95408.16;5034538;28;20433;-30
2023/04/16 04:40:10;;;;;;;3.47;1.05;;;;;;;14.46;52.07;95415.28;5035448;28;20238;-28
2023/04/16 04:42:36;;;;;;;0.55;0.20;;;;;;;14.47;51.87;95416.75;5035306;28;20104;-28
2023/04/16 04:45:01;;;;;;;1.02;0.17;;;;;;;14.45;51.15;95424.69;5042757;28;20025;-30
2023/04/16 04:47:27;;;;;;;1.65;0.15;;;;;;;14.60;50.59;95419.91;5044571;28;20036;-28
2023/04/16 04:49:52;;;;;;;0.43;0.10;;;;;;;14.50;50.99;95425.97;5045101;28;20033;-30
2023/04/16 04:52:19;;;;;;;0.75;0.17;;;;;;;14.47;50.57;95430.41;5035823;28;20048;-28
2023/04/16 04:54:44;;;;;;;0.63;0.10;;;;;;;14.30;51.32;95432.13;5039482;28;20116;-29
2023/04/16 04:57:10;;;;;;;0.00;0.00;;;;;;;14.39;50.58;95437.47;5036668;28;20031;-29
2023/04/16 04:59:35;;;;;;;0.65;0.13;;;;;;;14.17;50.83;95437.16;5035109;28;20464;-28
2023/04/16 05:02:02;;;;;;;2.55;0.20;;;;;;;14.45;50.39;95457.44;5041959;28;20033;-28
2023/04/16 05:04:28;;;;;;;0.00;0.00;;;;;;;14.30;50.02;95459.41;5049031;28;20098;-28
2023/04/16 05:06:54;;;;;;;0.00;0.00;;;;;;;14.41;50.40;95462.31;5035015;28;20100;-28
2023/04/16 05:09:19;;;;;;;0.90;0.25;;;;;;;14.48;50.01;95466.63;5035049;28;20592;-29
2023/04/16 05:11:45;;;;;;;0.20;0.10;;;;;;;14.31;50.16;95469.84;5034828;28;20025;-29
2023/04/16 05:14:10;;;;;;;0.85;0.20;;;;;;;14.38;49.87;95463.22;5041052;28;20017;-28
2023/04/16 05:16:36;;;;;;;0.98;0.10;;;;;;;14.26;49.64;95461.56;5036254;28;20043;-29
2023/04/16 05:19:02;;;;;;;0.15;0.00;;;;;;;14.15;50.07;95467.59;5040102;28;20343;-28
2023/04/16 05:21:27;;;;;;;0.50;0.10;;;;;;;14.38;49.79;95469.44;5041989;28;20037;-30
2023/04/16 05:23:53;;;;;;;0.63;0.10;;;;;;;14.25;49.45;95484.59;5034545;28;20029;-28
2023/04/16 05:26:19;;;;;;;0.43;0.10;;;;;;;14.22;49.64;95469.19;5034850;28;20120;-28
2023/04/16 05:28:45;;;;;;;0.20;0.10;;;;;;;14.30;49.67;95475.78;5034603;28;20022;-29
2023/04/16 05:31:10;;;;;;;0.10;0.10;;;;;;;14.19;50.13;95484.53;5046056;28;20071;-29
2023/04/16 05:33:35;;;;;;;0.00;0.00;;;;;;;14.40;49.52;95482.63;5042434;28;20464;-28
2023/04/16 05:36:01;;;;;;;0.50;0.20;;;;;;;14.21;49.74;95493.00;5034889;28;20025;-30
2023/04/16 05:38:26;;;;;;;0.25;0.10;;;;;;;14.30;49.46;95500.31;5034558;28;20021;-28
2023/04/16 05:40:52;;;;;;;0.60;0.10;;;;;;;14.26;49.93;95499.75;5034512;28;20021;-30
2023/04/16 05:43:17;;;;;;;0.13;0.10;;;;;;;14.27;49.90;95499.28;5034189;28;20096;-28
2023/04/16 05:45:42;;;;;;;0.40;0.10;;;;;;;14.22;49.73;95499.19;5033948;28;20025;-29
2023/04/16 05:48:08;;;;;;;0.20;0.10;;;;;;;14.16;49.79;95490.19;5041561;28;20030;-28
2023/04/16 05:50:34;;;;;;;0.30;0.10;;;;;;;14.17;50.32;95502.59;5033688;28;20028;-28
2023/04/16 05:53:01;;;;;;;0.55;0.10;;;;;;;14.20;49.83;95493.47;5033794;28;20108;-28
2023/04/16 05:55:27;;;;;;;0.00;0.00;;;;;;;14.06;50.08;95496.97;5047846;28;20025;-30
2023/04/16 05:57:52;;;;;;;0.10;0.10;;;;;;;14.33;50.01;95496.66;5033797;28;20026;-29
2023/04/16 06:00:18;;;;;;;1.05;0.20;;;;;;;14.48;49.67;95494.66;5034225;28;20036;-28
2023/04/16 06:02:44;;;;;;;1.73;0.10;;;;;;;14.36;50.26;95506.59;5038103;28;20020;-29
2023/04/16 06:05:10;;;;;;;1.00;0.85;;;;;;;14.41;49.76;95518.84;5036010;28;20090;-28
2023/04/16 06:07:35;;;;;;;1.92;0.30;;;;;;;14.24;50.42;95513.84;5041311;28;20017;-31
2023/04/16 06:10:00;;;;;;;0.22;0.20;;;;;;;14.35;50.20;95507.81;5034025;28;20026;-29
2023/04/16 06:12:26;;;;;;;0.17;0.10;;;;;;;14.57;50.04;95508.19;5033982;28;20053;-29
2023/04/16 06:14:51;;;;;;;0.40;0.10;;;;;;;14.43;50.48;95517.16;5033738;28;20021;-29
2023/04/16 06:17:18;;;;;;;0.20;0.10;;;;;;;14.39;50.69;95511.09;5033506;28;20374;-29
2023/04/16 06:19:43;;;;;;;0.45;0.20;;;;;;;14.39;50.71;95513.84;5041263;28;20381;-29
2023/04/16 06:22:09;;;;;;;0.20;0.05;;;;;;;14.44;50.67;95499.56;5039238;28;20025;-28
2023/04/16 06:24:35;;;;;;;1.00;0.10;;;;;;;14.22;50.43;95502.66;5035496;28;20392;-29
2023/04/16 06:27:00;;;;;;;0.10;0.10;;;;;;;14.30;50.72;95503.03;5033417;28;20458;-29
2023/04/16 06:29:26;;;;;;;0.30;0.10;;;;;;;14.38;50.33;95485.06;5033622;28;20037;-29
2023/04/16 06:31:51;;;;;;;0.35;0.10;;;;;;;14.37;50.28;95481.56;5041224;28;20018;-28
2023/04/16 06:34:16;;;;;;;1.45;0.50;;;;;;;14.29;50.47;95490.63;5033744;28;20479;-29
2023/04/16 06:36:42;;;;;;;2.42;0.13;;;;;;;14.30;50.70;95489.41;5041196;28;20021;-29
2023/04/16 06:39:07;;;;;;;0.55;0.10;;;;;;;14.51;50.45;95490.22;5033338;28;20016;-28
2023/04/16 06:41:32;;;;;;;0.40;0.10;;;;;;;14.47;50.23;95495.88;5033542;28;20067;-29
2023/04/16 06:43:58;;;;;;;0.13;0.13;;;;;;;14.27;51.08;95491.09;5033692;28;20021;-29
2023/04/16 06:46:23;;;;;;;0.68;0.17;;;;;;;14.45;51.04;95494.88;5033982;28;20370;-28
2023/04/16 06:48:49;;;;;;;1.25;0.38;;;;;;;14.40;51.13;95503.72;5033276;28;20018;-28
2023/04/16 06:51:14;;;;;;;0.38;0.13;;;;;;;14.14;51.79;95493.38;5043689;28;20032;-29
2023/04/16 06:53:41;;;;;;;0.35;0.13;;;;;;;14.38;50.93;95498.69;5037226;28;20032;-28
2023/04/16 06:56:07;;;;;;;0.38;0.10;;;;;;;14.39;50.77;95492.00;5032736;28;20112;-28
2023/04/16 06:58:33;;;;;;;0.30;0.13;;;;;;;14.30;51.14;95503.78;5033371;28;20155;-28
2023/04/16 07:00:58;;;;;;;0.35;0.10;;;;;;;14.42;51.07;95498.53;5033144;28;20354;-29
2023/04/16 07:03:23;;;;;;;0.52;0.20;;;;;;;14.33;51.52;95499.38;5033225;28;20022;-29
2023/04/16 07:05:49;;;;;;;0.13;0.10;;;;;;;14.35;51.46;95507.81;5033382;28;20520;-30
2023/04/16 07:08:14;;;;;;;0.98;0.10;;;;;;;14.34;51.71;95512.50;5040507;28;20037;-29
2023/04/16 07:10:40;;;;;;;0.10;0.00;;;;;;;14.45;51.64;95512.00;5036457;28;20024;-29
2023/04/16 07:13:05;;;;;;;0.32;0.20;;;;;;;14.44;51.73;95507.00;5043956;28;20028;-28
2023/04/16 07:15:31;;;;;;;0.35;0.10;;;;;;;14.52;51.59;95510.81;5034373;28;20029;-28
2023/04/16 07:17:56;;;;;;;0.75;0.32;;;;;;;14.42;51.93;95515.66;5033200;28;20017;-28
2023/04/16 07:20:21;;;;;;;1.30;0.10;;;;;;;14.67;51.42;95512.31;5032838;28;20041;-30
2023/04/16 07:22:47;;;;;;;0.60;0.20;;;;;;;14.36;52.54;95522.97;5033699;28;20083;-30
2023/04/16 07:25:12;;;;;;;0.90;0.50;;;;;;;14.62;51.83;95521.16;5040326;28;20014;-29
2023/04/16 07:27:38;;;;;;;1.63;0.22;;;;;;;14.72;51.64;95513.59;5033096;28;20024;-28
2023/04/16 07:30:04;;;;;;;0.77;0.38;;;;;;;14.60;51.88;95520.13;5033270;28;20480;-29
2023/04/16 07:32:29;;;;;;;1.42;0.70;;;;;;;14.70;52.01;95516.06;5040318;28;20080;-29
2023/04/16 07:34:56;;;;;;;1.35;0.47;;;;;;;14.69;52.13;95515.31;5033457;28;20018;-29
2023/04/16 07:37:21;;;;;;;0.93;0.30;;;;;;;14.64;52.30;95518.69;5040476;28;20025;-29
2023/04/16 07:39:47;;;;;;;0.65;0.30;;;;;;;14.60;52.49;95533.75;5038626;28;20021;-29
2023/04/16 07:42:13;;;;;;;0.65;0.40;;;;;;;14.71;51.80;95521.03;5043830;28;20040;-29
2023/04/16 07:44:38;;;;;;;1.17;0.10;;;;;;;14.77;52.12;95525.81;5036093;28;20021;-30
2023/04/16 07:47:03;;;;;;;0.50;0.20;;;;;;;14.63;52.36;95539.03;5036798;28;20397;-29
2023/04/16 07:49:29;;;;;;;0.22;0.17;;;;;;;14.82;51.82;95533.34;5041003;28;20028;-29
2023/04/16 07:51:54;;;;;;;0.20;0.10;;;;;;;14.69;51.97;95530.94;5045924;28;20056;-29
2023/04/16 07:54:20;;;;;;;1.08;0.20;;;;;;;14.66;52.48;95531.88;5046260;28;20028;-28
2023/04/16 07:56:45;;;;;;;0.28;0.10;;;;;;;14.58;52.38;95534.25;5040749;28;20041;-28
2023/04/16 07:59:11;;;;;;;0.17;0.10;;;;;;;14.49;52.35;95534.34;5036378;28;20092;-28
2023/04/16 08:01:36;;;;;;;1.45;0.28;;;;;;;14.48;52.43;95535.56;5036016;28;20148;-29
2023/04/16 08:04:02;;;;;;;1.70;0.40;;;;;;;14.79;51.93;95542.47;5042979;28;20045;-29
2023/04/16 08:06:27;;;;;;;3.05;1.30;;;;;;;14.65;52.54;95552.94;5038375;28;20033;-29
2023/04/16 08:08:52;;;;;;;0.45;0.30;;;;;;;14.67;52.30;95544.28;5040996;28;20075;-28
2023/04/16 08:11:18;;;;;;;3.30;0.50;;;;;;;14.51;52.97;95548.28;5035981;28;20017;-28
2023/04/16 08:13:43;;;;;;;0.95;0.60;;;;;;;14.67;52.56;95544.28;5043085;28;20445;-28
2023/04/16 08:16:09;;;;;;;1.23;0.80;;;;;;;14.64;52.34;95546.00;5036138;28;20040;-29
2023/04/16 08:18:34;;;;;;;1.77;0.55;;;;;;;14.62;52.83;95542.97;5042895;28;20470;-28
2023/04/16 08:21:00;;;;;;;0.40;0.30;;;;;;;14.71;52.64;95534.66;5042810;28;20022;-29
2023/04/16 08:23:25;;;;;;;0.80;0.30;;;;;;;14.74;52.98;95541.16;5035138;28;20440;-29
2023/04/16 08:25:51;;;;;;;1.45;1.13;;;;;;;14.92;52.54;95530.00;5035964;28;20487;-30
2023/04/16 08:28:16;;;;;;;2.38;1.30;;;;;;;14.88;52.66;95531.44;5036198;28;20102;-29
2023/04/16 08:30:42;;;;;;;2.95;1.95;;;;;;;14.96;52.33;95532.53;5043579;28;20423;-28
2023/04/16 08:33:07;;;;;;;3.35;1.33;;;;;;;14.72;52.54;95521.78;5046035;28;20017;-30
2023/04/16 08:35:33;;;;;;;2.85;1.00;;;;;;;14.90;52.20;95537.16;5039041;28;20024;-29
2023/04/16 08:37:59;;;;;;;1.60;0.70;;;;;;;14.91;52.32;95560.50;5042553;28;20037;-30
2023/04/16 08:40:28;;;;;;;2.70;0.68;;;;;;;14.80;52.65;95546.72;5035452;28;20500;-28
2023/04/16 08:42:57;;;;;;;3.72;0.43;;;;;;;14.87;52.73;95551.75;5035580;28;20065;-29
2023/04/16 08:45:27;;;;;;;0.60;0.40;;;;;;;14.78;52.61;95549.16;5036237;28;20033;-28
2023/04/16 08:47:53;;;;;;;1.08;0.40;;;;;;;14.87;52.41;95557.97;5043754;28;20097;-29
2023/04/16 08:50:23;;;;;;;2.13;0.40;;;;;;;14.79;52.35;95564.31;5035266;28;20021;-29
2023/04/16 08:53:10;;;;;;;4.30;0.80;;;;;;;14.89;52.23;95573.88;5035162;28;20096;-28
2023/04/16 08:55:37;;;;;;;3.85;0.60;;;;;;;14.70;52.25;95582.31;5036050;28;20026;-29
2023/04/16 08:58:08;;;;;;;4.18;1.00;;;;;;;14.74;52.21;95563.75;5035444;28;20026;-29
2023/04/16 09:00:36;;;;;;;0.85;0.60;;;;;;;14.76;52.03;95565.25;5034312;28;20477;-29
2023/04/16 09:03:02;;;;;;;3.72;0.60;;;;;;;14.84;51.98;95571.81;5042220;28;20024;-29
2023/04/16 09:05:28;;;;;;;0.80;0.50;;;;;;;14.87;52.04;95589.97;5035104;28;20128;-31
2023/04/16 09:07:53;;;;;;;1.17;0.60;;;;;;;14.86;51.67;95583.00;5034725;28;20428;-29
2023/04/16 09:10:19;;;;;;;0.93;0.60;;;;;;;14.74;52.06;95593.78;5034973;28;20021;-29
2023/04/16 09:12:45;;;;;;;3.58;0.63;;;;;;;14.88;51.98;95592.25;5034645;28;20465;-28
2023/04/16 09:15:11;;;;;;;1.05;0.50;;;;;;;14.77;52.49;95600.25;5034875;28;20024;-30
2023/04/16 09:17:37;;;;;;;2.35;0.60;;;;;;;14.78;52.65;95614.66;5042056;28;20415;-28
2023/04/16 09:20:07;;;;;;;1.13;0.70;;;;;;;14.86;52.38;95618.50;5034681;28;20025;-28
2023/04/16 09:22:33;;;;;;;2.05;0.80;;;;;;;15.00;52.14;95604.81;5034895;28;20021;-28
2023/04/16 09:24:59;;;;;;;1.10;0.40;;;;;;;14.89;52.21;95603.91;5034645;28;20114;-30
2023/04/16 09:27:25;;;;;;;4.10;0.50;;;;;;;14.88;51.97;95602.41;5041442;28;20022;-28
2023/04/16 09:29:50;;;;;;;2.67;0.50;;;;;;;14.95;52.42;95607.50;5041511;28;20037;-28
2023/04/16 09:32:15;;;;;;;2.33;0.60;;;;;;;15.00;52.06;95612.25;5041819;28;20378;-30
2023/04/16 09:35:10;;;;;;;2.45;0.40;;;;;;;15.00;52.14;95620.44;5034687;28;20385;-29
2023/04/16 09:37:35;;;;;;;0.63;0.25;;;;;;;15.16;51.19;95622.69;5039650;28;20056;-28
2023/04/16 09:40:03;;;;;;;2.25;0.40;;;;;;;14.86;51.56;95623.97;5034670;28;20013;-28
2023/04/16 09:42:31;;;;;;;1.65;0.40;;;;;;;14.92;51.74;95625.56;5039533;28;20074;-29
2023/04/16 09:44:57;;;;;;;1.17;0.40;;;;;;;14.93;51.30;95631.78;5036273;28;20112;-28
2023/04/16 09:47:25;;;;;;;0.93;0.20;;;;;;;14.99;51.18;95635.31;5040556;28;20025;-28
2023/04/16 09:49:51;;;;;;;0.55;0.30;;;;;;;14.99;50.97;95629.88;5033737;28;20025;-28
2023/04/16 09:52:21;;;;;;;0.88;0.40;;;;;;;14.88;51.47;95643.34;5041018;28;20091;-29
2023/04/16 09:54:52;;;;;;;0.80;0.30;;;;;;;14.89;51.50;95637.44;5039928;28;20016;-28
2023/04/16 09:57:23;;;;;;;3.47;1.75;;;;;;;15.15;50.54;95631.34;5041358;28;20017;-29
2023/04/16 10:00:01;;;;;;;2.97;1.40;;;;;;;15.22;50.82;95628.97;5039950;28;20017;-28
2023/04/16 10:02:27;;;;;;;1.10;0.50;;;;;;;15.09;51.50;95617.59;5034683;28;20048;-28
2023/04/16 10:04:53;;;;;;;0.55;0.40;;;;;;;15.27;51.65;95600.22;5033819;28;20045;-29
2023/04/16 10:07:19;;;;;;;2.47;0.47;;;;;;;15.14;52.06;95600.56;5034149;28;20048;-29
2023/04/16 10:09:48;;;;;;;1.17;0.30;;;;;;;15.06;52.85;95607.66;5040878;28;20018;-29
2023/04/16 10:12:15;;;;;;;3.10;0.60;;;;;;;15.19;52.01;95608.06;5041073;28;20079;-29
2023/04/16 10:14:41;;;;;;;0.45;0.30;;;;;;;15.31;51.92;95609.72;5026251;28;20492;-29
2023/04/16 10:17:08;;;;;;;0.50;0.40;;;;;;;15.31;52.01;95617.16;5033585;28;20465;-29
2023/04/16 10:19:34;;;;;;;0.88;0.52;;;;;;;15.25;52.85;95610.88;5033968;28;20481;-28
2023/04/16 10:22:01;;;;;;;1.00;0.80;;;;;;;15.34;52.55;95616.19;5038213;28;20377;-29
2023/04/16 10:24:28;;;;;;;1.33;0.70;;;;;;;15.61;51.65;95629.50;5036236;28;20024;-28
2023/04/16 10:26:54;;;;;;;1.23;0.70;;;;;;;15.47;52.07;95619.34;5040472;28;20028;-29
2023/04/16 10:29:21;;;;;;;1.63;0.60;;;;;;;15.44;51.98;95625.78;5033219;28;20030;-29
2023/04/16 10:31:48;;;;;;;0.70;0.50;;;;;;;15.36;52.19;95627.41;5033877;28;20021;-29
2023/04/16 10:34:14;;;;;;;1.33;0.60;;;;;;;15.51;51.93;95630.09;5033789;28;20026;-28
2023/04/16 10:36:40;;;;;;;0.85;0.52;;;;;;;15.58;52.06;95632.47;5033440;28;20029;-28
2023/04/16 10:39:11;;;;;;;0.93;0.50;;;;;;;15.62;52.55;95641.19;5041085;28;20014;-29
2023/04/16 10:41:37;;;;;;;0.85;0.50;;;;;;;15.53;52.45;95633.84;5037950;28;20021;-29
2023/04/16 10:44:10;;;;;;;0.85;0.50;;;;;;;15.49;52.56;95638.00;5034143;28;20021;-29
2023/04/16 10:46:40;;;;;;;0.75;0.52;;;;;;;15.62;52.27;95638.44;5033593;28;20036;-29
2023/04/16 10:49:12;;;;;;;1.70;0.70;;;;;;;15.62;52.07;95639.19;5033739;28;20017;-30
2023/04/16 10:51:38;;;;;;;0.73;0.50;;;;;;;15.74;51.91;95626.41;5038757;28;20465;-28
2023/04/16 10:54:30;;;;;;;0.90;0.40;;;;;;;15.68;51.90;95631.09;5035355;28;20029;-31
2023/04/16 10:56:58;;;;;;;1.13;0.40;;;;;;;15.50;51.84;95637.53;5033330;28;20057;-28
2023/04/16 10:59:24;;;;;;;0.82;0.47;;;;;;;15.67;51.30;95654.19;5040301;28;20047;-28
2023/04/16 11:01:55;;;;;;;3.15;0.65;;;;;;;15.73;51.58;95654.97;5033364;28;20021;-29
2023/04/16 11:04:20;;;;;;;4.35;0.68;;;;;;;15.59;51.52;95655.78;5033200;28;20080;-29
2023/04/16 11:07:17;;;;;;;1.73;0.50;;;;;;;15.71;51.30;95657.44;5033290;28;20110;-28
2023/04/16 11:10:11;;;;;;;3.20;1.33;;;;;;;15.54;50.65;95672.88;5026673;28;20029;-29
2023/04/16 11:12:39;;;;;;;5.10;2.67;;;;;;;15.60;50.81;95677.19;5039340;28;20415;-28
2023/04/16 11:15:05;;;;;;;2.65;2.25;;;;;;;15.57;51.32;95666.47;5041492;28;20017;-28
2023/04/16 11:17:46;;;;;;;2.13;1.92;;;;;;;15.84;50.87;95662.56;5037029;28;20431;-29
2023/04/16 11:20:16;;;;;;;1.48;1.38;;;;;;;15.70;51.41;95659.41;5036962;28;20469;-30
2023/04/16 11:22:42;;;;;;;1.05;0.88;;;;;;;15.65;52.10;95659.38;5044188;28;20500;-30
2023/04/16 11:25:08;;;;;;;1.05;0.70;;;;;;;15.76;51.74;95662.22;5036959;28;20025;-29
2023/04/16 11:27:34;;;;;;;3.97;3.00;;;;;;;15.73;52.20;95680.34;5036917;28;20382;-28
2023/04/16 11:30:03;;;;;;;1.33;1.00;;;;;;;15.69;51.90;95668.13;5029937;28;20040;-28